DAUH/HME METAR and TAF weather

Enter ICAO airport designator
Station Type Date Time Source
DAUH METAR 2020/01/22 21:00 UTC NOAA

DAUH 222100Z 08006KT 8000 NSC 15/M03 Q1018


Station Type Date Time Source
DAUH Decoded METAR 2020/01/22 21:00 UTC NOAA

Hassi-Messaoud, Algeria (DAUH) 31-40N 006-09E 142M
Jan 22, 2020 - 04:00 PM EST / 2020.01.22 2100 UTC
Wind: from the E (080 degrees) at 7 MPH (6 KT):0
Visibility: 4 mile(s):0
Temperature: 59 F (15 C)
Dew Point: 26 F (-3 C)
Relative Humidity: 28%
Pressure (altimeter): 30.06 in. Hg (1018 hPa)
ob: DAUH 222100Z 08006KT 8000 NSC 15/M03 Q1018
cycle: 21

Station Type Date Time Source
DAUH TAF 2020/01/22 18:33 UTC NOAA

TAF DAUH 221700Z 2218/2318 14010KT 8000 NSC PROB30
TEMPO 2218/2222 4000 HZ
BECMG 2309/2312 30006KT

Example: see airport list